Time;durP1;ratioP1;P1;durP2;ratioP2;P2;SDS_P1;SDS_P2;PMS_P1;PMS_P2;Temp;Humidity;BMP_temperature;BMP_pressure;BME280_temperature;BME280_humidity;BME280_pressure;Samples;Min_cycle;Max_cycle;Signal;HPM_P1;HPM_P2
2022/08/12 00:44:55;;;;;;;1.45;0.50;;;;;;;19.37;47.71;99049.59;5032499;28;20057;-60
2022/08/12 00:47:41;;;;;;;0.80;0.47;;;;;;;19.30;48.64;99049.38;5031200;28;20049;-60
2022/08/12 00:50:28;;;;;;;0.68;0.40;;;;;;;19.35;48.17;99054.22;5031700;28;20040;-61
2022/08/12 00:53:14;;;;;;;0.55;0.30;;;;;;;19.35;48.50;99052.41;5042149;28;20155;-61
2022/08/12 00:55:59;;;;;;;2.15;0.60;;;;;;;19.36;48.39;99043.44;5041942;28;20090;-60
2022/08/12 00:58:49;;;;;;;2.20;0.55;;;;;;;19.11;49.73;99042.44;5039749;28;20478;-61
2022/08/12 01:01:35;;;;;;;1.10;0.50;;;;;;;19.00;49.47;99040.84;5043897;28;20119;-61
2022/08/12 01:13:46;;;;;;;0.75;0.40;;;;;;;19.15;48.77;99046.44;5030611;28;20033;-60
2022/08/12 01:16:30;;;;;;;1.00;0.55;;;;;;;19.11;48.57;99045.91;5043045;28;20365;-60
2022/08/12 01:19:17;;;;;;;2.03;0.80;;;;;;;19.09;49.25;99042.56;5042541;28;20056;-61
2022/08/12 01:22:20;;;;;;;1.38;0.40;;;;;;;19.04;49.60;99039.53;5030561;28;20049;-61
2022/08/12 01:25:20;;;;;;;1.92;0.50;;;;;;;18.70;49.97;99033.91;5042815;28;20041;-61
2022/08/12 01:28:09;;;;;;;1.58;0.50;;;;;;;18.70;50.78;99035.75;5034616;28;20086;-62
2022/08/12 01:30:59;;;;;;;1.83;0.45;;;;;;;18.83;50.18;99035.38;5015930;28;20408;-62
2022/08/12 01:34:02;;;;;;;1.13;0.70;;;;;;;18.64;51.00;99026.56;5032845;28;20108;-60
2022/08/12 01:36:55;;;;;;;1.63;0.50;;;;;;;18.55;50.94;99032.78;5031167;28;20049;-61
2022/08/12 01:39:54;;;;;;;0.80;0.50;;;;;;;18.64;50.87;99028.41;5042569;28;20036;-61
2022/08/12 01:42:48;;;;;;;1.17;0.65;;;;;;;18.56;51.27;99023.84;5039947;28;20100;-62
2022/08/12 01:45:38;;;;;;;1.13;0.60;;;;;;;18.70;50.53;99025.97;5063758;28;20056;-61
2022/08/12 01:48:28;;;;;;;1.30;0.60;;;;;;;18.88;48.71;99029.59;5045477;28;20145;-61
2022/08/12 01:51:39;;;;;;;1.08;0.60;;;;;;;18.87;49.88;99022.66;5031099;28;20421;-61
2022/08/12 01:54:28;;;;;;;2.95;0.50;;;;;;;18.78;50.48;99024.38;5025010;28;20037;-60
2022/08/12 01:57:23;;;;;;;1.00;0.43;;;;;;;18.66;48.94;99021.97;5031445;28;20060;-60
2022/08/12 02:00:13;;;;;;;0.93;0.50;;;;;;;18.55;50.89;99022.19;5030821;28;20086;-60
2022/08/12 02:03:08;;;;;;;1.08;0.45;;;;;;;18.63;50.33;99010.81;5029774;28;20037;-61
2022/08/12 02:12:31;;;;;;;0.60;0.40;;;;;;;18.53;51.54;99013.53;5037630;28;20170;-60
2022/08/12 02:15:32;;;;;;;0.40;0.30;;;;;;;18.46;51.20;99005.34;5040518;28;20041;-60
2022/08/12 02:18:34;;;;;;;0.80;0.47;;;;;;;18.45;51.64;99009.84;5047413;28;20037;-61
2022/08/12 02:21:29;;;;;;;0.90;0.40;;;;;;;18.42;50.84;98996.03;5035303;28;20045;-61
2022/08/12 02:24:18;;;;;;;1.00;0.45;;;;;;;18.43;50.59;98997.69;5039962;28;20033;-60
2022/08/12 02:27:07;;;;;;;0.50;0.30;;;;;;;18.45;50.39;99001.88;5037774;28;20080;-60
2022/08/12 02:29:51;;;;;;;1.52;0.55;;;;;;;18.32;51.37;98996.94;5034723;28;20046;-60
2022/08/12 02:32:40;;;;;;;0.90;0.40;;;;;;;18.13;52.89;98995.25;5033589;28;20037;-60
2022/08/12 02:35:28;;;;;;;0.85;0.47;;;;;;;18.02;52.62;98996.25;5034474;28;20038;-60
2022/08/12 02:38:13;;;;;;;1.20;0.73;;;;;;;17.97;53.67;98998.50;5033152;28;20048;-60
2022/08/12 02:41:01;;;;;;;1.58;0.60;;;;;;;18.04;50.97;98991.63;5033258;28;20042;-60
2022/08/12 02:43:58;;;;;;;1.02;0.60;;;;;;;18.07;51.70;98996.63;5034362;28;20191;-59
2022/08/12 02:46:48;;;;;;;1.02;0.52;;;;;;;18.11;52.14;98989.22;5037432;28;20053;-60
2022/08/12 02:49:45;;;;;;;2.33;0.73;;;;;;;18.04;53.20;98988.97;5039030;28;20432;-60
2022/08/12 02:52:33;;;;;;;0.60;0.47;;;;;;;17.72;52.38;98995.56;5034295;28;20507;-61
2022/08/12 02:55:20;;;;;;;1.02;0.55;;;;;;;17.70;53.00;98997.50;5042169;28;20045;-60
2022/08/12 02:58:09;;;;;;;0.88;0.40;;;;;;;17.83;52.52;99000.69;5034500;28;20441;-60
2022/08/12 03:00:54;;;;;;;1.30;0.70;;;;;;;18.05;51.51;98997.78;5043107;28;20424;-61
2022/08/12 03:03:40;;;;;;;0.77;0.50;;;;;;;18.04;52.44;99001.38;5051517;28;20427;-60
2022/08/12 03:06:31;;;;;;;1.35;0.60;;;;;;;17.85;53.10;98996.03;5041953;28;20060;-61
2022/08/12 03:09:17;;;;;;;1.27;0.43;;;;;;;17.93;53.02;98997.97;5045207;28;20128;-61
2022/08/12 03:12:08;;;;;;;1.38;0.45;;;;;;;17.87;52.21;98997.72;5033771;28;20040;-60
2022/08/12 03:14:55;;;;;;;1.05;0.45;;;;;;;17.91;51.76;98986.69;5032572;28;20128;-61
2022/08/12 03:17:54;;;;;;;1.02;0.52;;;;;;;17.85;53.41;98993.38;5047471;28;20040;-60
2022/08/12 03:20:40;;;;;;;1.05;0.50;;;;;;;17.79;53.38;98988.69;5045195;28;20043;-60
2022/08/12 03:23:26;;;;;;;0.80;0.60;;;;;;;17.73;53.56;98987.47;5039966;28;20041;-61
2022/08/12 03:26:11;;;;;;;1.67;0.47;;;;;;;17.71;53.62;98989.41;5033701;28;20037;-61
2022/08/12 03:28:56;;;;;;;1.58;0.60;;;;;;;17.64;53.08;98990.16;5032167;28;20392;-61
2022/08/12 03:31:42;;;;;;;0.80;0.50;;;;;;;17.50;54.15;98994.94;5033238;28;20041;-61
2022/08/12 03:34:32;;;;;;;1.08;0.60;;;;;;;17.35;54.36;98998.06;5042608;28;20099;-60
2022/08/12 03:37:19;;;;;;;0.95;0.40;;;;;;;17.34;54.81;98995.53;5044968;28;20123;-60
2022/08/12 03:40:07;;;;;;;1.27;0.60;;;;;;;17.44;54.84;98991.06;5046183;28;20048;-61
2022/08/12 04:01:25;;;;;;;0.70;0.40;;;;;;;17.50;53.47;99000.22;5019279;28;20449;-60
2022/08/12 04:04:09;;;;;;;0.88;0.40;;;;;;;17.65;53.36;99005.06;5034668;28;20280;-60
2022/08/12 04:06:56;;;;;;;1.85;0.50;;;;;;;17.55;54.13;99002.44;5032626;28;20041;-61
2022/08/12 04:09:43;;;;;;;1.17;0.60;;;;;;;17.39;54.51;99005.69;5046926;28;20396;-60
2022/08/12 04:15:32;;;;;;;2.72;0.82;;;;;;;17.45;54.74;99016.56;5046226;28;20044;-60
2022/08/12 04:18:17;;;;;;;0.98;0.55;;;;;;;16.98;55.67;99007.56;5041081;28;20033;-62
2022/08/12 04:21:09;;;;;;;0.85;0.43;;;;;;;16.80;55.88;99018.03;5045394;28;20037;-60
2022/08/12 04:23:54;;;;;;;1.63;0.40;;;;;;;17.06;56.20;99024.53;5031907;28;20037;-61
2022/08/12 04:26:41;;;;;;;1.00;0.50;;;;;;;17.19;55.99;99026.91;5045584;28;20046;-60
2022/08/12 04:29:27;;;;;;;1.40;0.60;;;;;;;17.28;55.62;99022.59;5032504;28;20037;-61
2022/08/12 04:32:13;;;;;;;1.08;0.50;;;;;;;17.49;54.98;99025.88;5042682;28;20120;-61
2022/08/12 04:34:58;;;;;;;1.92;0.70;;;;;;;17.20;56.10;99029.41;5030972;28;20111;-60
2022/08/12 04:37:53;;;;;;;0.80;0.50;;;;;;;17.22;55.44;99027.47;5032178;28;20476;-61
2022/08/12 04:40:38;;;;;;;1.13;0.60;;;;;;;17.46;55.25;99030.63;5032196;28;20491;-61
2022/08/12 04:43:25;;;;;;;2.13;0.75;;;;;;;17.48;55.72;99037.44;5031328;28;20473;-60
2022/08/12 04:46:11;;;;;;;1.02;0.73;;;;;;;17.55;55.45;99037.72;5044894;28;20052;-62
2022/08/12 04:48:56;;;;;;;2.90;0.70;;;;;;;17.54;56.16;99043.16;5030909;28;20436;-60
2022/08/12 04:51:42;;;;;;;1.35;0.50;;;;;;;17.38;56.01;99049.91;5058570;28;20437;-60
2022/08/12 04:54:27;;;;;;;1.35;0.50;;;;;;;16.97;58.61;99050.88;5041831;28;20040;-60
2022/08/12 04:57:11;;;;;;;1.10;0.70;;;;;;;16.88;59.43;99049.06;5044651;28;20148;-61
2022/08/12 04:59:56;;;;;;;0.85;0.60;;;;;;;16.97;59.42;99053.50;5031931;28;20389;-60
2022/08/12 05:02:41;;;;;;;1.08;0.70;;;;;;;16.98;58.25;99049.91;5031938;28;20072;-60
2022/08/12 05:05:27;;;;;;;1.13;0.70;;;;;;;17.00;59.44;99052.41;5032578;28;20061;-60
2022/08/12 05:08:16;;;;;;;2.20;0.80;;;;;;;17.13;59.55;99051.31;5037707;28;20040;-60
2022/08/12 05:11:04;;;;;;;2.00;0.70;;;;;;;17.06;58.91;99051.84;5033940;28;20087;-60
2022/08/12 05:13:51;;;;;;;5.25;0.95;;;;;;;16.82;60.10;99053.13;5034900;28;20124;-60
2022/08/12 05:16:36;;;;;;;1.55;0.80;;;;;;;16.85;59.67;99058.13;5041190;28;20543;-61
2022/08/12 05:19:20;;;;;;;1.73;0.60;;;;;;;16.78;60.62;99050.88;5048675;28;20041;-61
2022/08/12 05:22:05;;;;;;;0.88;0.50;;;;;;;16.80;60.16;99057.69;5036024;28;20045;-61
2022/08/12 05:24:50;;;;;;;2.40;0.65;;;;;;;16.96;59.88;99066.88;5036505;28;20111;-63
2022/08/12 05:27:35;;;;;;;2.78;0.88;;;;;;;16.91;59.57;99063.84;5039015;28;20392;-61
2022/08/12 05:30:20;;;;;;;1.67;0.95;;;;;;;16.94;59.20;99074.97;5034413;28;20044;-61
2022/08/12 05:33:05;;;;;;;1.15;0.80;;;;;;;16.93;59.64;99067.16;5031058;28;20056;-61
2022/08/12 05:35:50;;;;;;;2.80;1.20;;;;;;;16.90;59.98;99072.72;5034450;28;20533;-61
2022/08/12 05:41:38;;;;;;;2.22;1.15;;;;;;;17.29;59.88;99067.47;5049239;28;20138;-61
2022/08/12 05:44:23;;;;;;;2.15;1.00;;;;;;;17.32;60.02;99071.63;5042062;28;20045;-61
2022/08/12 05:47:11;;;;;;;1.35;0.85;;;;;;;17.28;59.39;99072.91;5032781;28;20436;-62
2022/08/12 05:49:57;;;;;;;1.55;0.90;;;;;;;17.50;58.46;99079.69;5034231;28;20072;-61
2022/08/12 05:52:42;;;;;;;2.22;1.13;;;;;;;17.56;58.51;99079.09;5035359;28;20060;-61
2022/08/12 05:55:27;;;;;;;1.77;0.90;;;;;;;17.83;57.65;99082.81;5035430;28;20037;-61
2022/08/12 05:58:19;;;;;;;1.48;0.90;;;;;;;18.04;57.37;99072.94;5034983;28;20041;-61
2022/08/12 06:01:04;;;;;;;2.63;1.30;;;;;;;18.17;56.61;99077.94;5020222;28;20381;-61
2022/08/12 06:03:49;;;;;;;2.28;0.95;;;;;;;17.96;57.96;99079.00;5035261;28;20116;-61
2022/08/12 06:06:40;;;;;;;1.70;0.80;;;;;;;17.98;57.34;99080.50;5033484;28;20550;-61
2022/08/12 06:09:29;;;;;;;2.75;0.85;;;;;;;18.10;57.73;99078.50;5047096;28;20047;-60
2022/08/12 06:12:16;;;;;;;1.80;1.00;;;;;;;18.09;57.60;99082.16;5033795;28;20384;-62
2022/08/12 06:15:03;;;;;;;2.80;1.00;;;;;;;18.27;57.12;99078.75;5034698;28;20108;-61
2022/08/12 06:17:52;;;;;;;1.52;0.75;;;;;;;18.38;56.47;99077.69;5032902;28;20087;-61
2022/08/12 06:20:38;;;;;;;1.50;0.70;;;;;;;18.52;56.80;99081.69;5034511;28;20063;-60
2022/08/12 06:23:28;;;;;;;2.17;1.33;;;;;;;18.73;56.11;99074.41;5051232;28;20465;-60
2022/08/12 06:26:15;;;;;;;3.25;1.35;;;;;;;18.89;56.07;99077.22;5036817;28;20555;-60
2022/08/12 06:29:01;;;;;;;2.92;1.40;;;;;;;19.06;55.31;99069.41;5034371;28;20037;-60
2022/08/12 06:31:49;;;;;;;2.50;1.80;;;;;;;19.15;55.09;99071.19;5033296;28;20064;-60
2022/08/12 06:34:35;;;;;;;3.13;1.63;;;;;;;19.28;54.93;99070.78;5044762;28;20061;-60
2022/08/12 06:37:22;;;;;;;6.53;1.50;;;;;;;19.64;53.54;99069.00;5034004;28;20465;-61
2022/08/12 06:40:09;;;;;;;3.75;1.40;;;;;;;20.05;52.48;99068.44;5034633;28;20061;-59
2022/08/12 06:42:55;;;;;;;2.88;1.00;;;;;;;20.25;52.39;99078.81;5052545;28;20055;-61
2022/08/12 06:45:46;;;;;;;2.15;0.80;;;;;;;20.72;50.91;99069.44;5034239;28;20095;-60
2022/08/12 06:48:31;;;;;;;4.45;1.50;;;;;;;20.21;52.55;99077.44;5045769;28;20076;-60
2022/08/12 06:51:17;;;;;;;2.92;1.23;;;;;;;20.89;50.50;99066.81;5032975;28;20064;-61
2022/08/12 06:54:02;;;;;;;1.80;0.88;;;;;;;21.36;49.50;99072.50;5035674;28;20038;-60
2022/08/12 06:56:48;;;;;;;1.80;0.82;;;;;;;21.74;48.51;99061.28;5044411;28;20060;-60
2022/08/12 06:59:37;;;;;;;2.55;1.15;;;;;;;22.04;47.82;99072.19;5032677;28;20113;-60
2022/08/12 07:02:22;;;;;;;1.98;1.00;;;;;;;22.23;47.09;99067.44;5033807;28;20042;-60
2022/08/12 07:05:07;;;;;;;2.08;1.08;;;;;;;22.96;46.04;99071.69;5019181;28;20056;-60
2022/08/12 07:07:54;;;;;;;3.97;0.80;;;;;;;22.73;46.43;99077.88;5048625;28;20036;-60
2022/08/12 07:10:42;;;;;;;3.88;1.10;;;;;;;22.05;48.55;99087.16;5024203;28;20033;-61
2022/08/12 07:13:41;;;;;;;1.92;0.93;;;;;;;22.18;48.47;99089.28;5043378;28;20033;-61
2022/08/12 07:16:50;;;;;;;1.50;0.80;;;;;;;22.04;48.71;99080.19;5033560;28;20393;-61
2022/08/12 07:19:32;;;;;;;1.90;1.02;;;;;;;22.50;47.80;99078.63;5033659;28;20045;-61
2022/08/12 07:22:16;;;;;;;2.78;0.90;;;;;;;23.04;46.37;99073.47;5033594;28;20069;-61
2022/08/12 07:28:06;;;;;;;3.72;1.00;;;;;;;23.46;45.58;99084.66;5036808;28;20144;-61
2022/08/12 07:30:52;;;;;;;3.05;1.20;;;;;;;23.49;45.74;99081.59;5032734;28;20033;-62
2022/08/12 07:33:40;;;;;;;2.67;0.90;;;;;;;23.58;46.04;99087.72;5045590;28;21221;-62
2022/08/12 07:36:26;;;;;;;2.42;1.00;;;;;;;23.84;45.57;99084.59;5033308;28;20069;-63
2022/08/12 07:39:12;;;;;;;3.10;0.93;;;;;;;23.72;45.70;99081.53;5052095;28;20044;-60
2022/08/12 07:41:58;;;;;;;3.75;0.85;;;;;;;23.46;46.30;99087.31;5045977;28;20488;-61
2022/08/12 07:44:49;;;;;;;2.33;0.73;;;;;;;23.75;46.03;99077.66;5047867;28;20053;-62
2022/08/12 07:47:36;;;;;;;1.90;0.88;;;;;;;24.19;45.08;99081.38;5041020;28;20058;-61
2022/08/12 07:50:21;;;;;;;3.72;0.95;;;;;;;24.58;44.25;99073.16;5033364;28;20039;-62
2022/08/12 07:53:05;;;;;;;2.92;0.80;;;;;;;23.96;45.60;99079.59;5039389;28;20037;-61
2022/08/12 07:55:50;;;;;;;1.52;0.85;;;;;;;24.65;44.34;99082.09;5045680;28;20064;-61
2022/08/12 07:58:39;;;;;;;2.33;0.77;;;;;;;24.26;44.67;99077.94;5035059;28;20037;-61
2022/08/12 08:01:24;;;;;;;2.53;0.88;;;;;;;25.26;43.27;99084.53;5034722;28;20483;-60
2022/08/12 08:07:13;;;;;;;5.65;1.05;;;;;;;25.07;43.57;99084.16;5031901;28;20041;-62
2022/08/12 08:10:01;;;;;;;2.30;0.80;;;;;;;25.40;42.38;99091.66;5058291;28;20034;-60
2022/08/12 08:13:03;;;;;;;1.92;0.90;;;;;;;25.54;41.55;99089.06;5036340;28;20388;-61
2022/08/12 08:15:48;;;;;;;3.42;1.00;;;;;;;25.87;40.81;99088.47;5034049;28;20095;-62
2022/08/12 08:18:33;;;;;;;1.55;0.77;;;;;;;25.91;40.82;99089.72;5061074;28;20163;-61
2022/08/12 08:21:20;;;;;;;2.67;0.80;;;;;;;26.13;40.71;99094.97;5041137;28;20041;-62
2022/08/12 08:24:14;;;;;;;1.48;0.75;;;;;;;26.48;39.79;99096.81;5032800;28;20087;-61
2022/08/12 08:26:59;;;;;;;1.83;0.90;;;;;;;26.85;39.39;99085.72;5032356;28;20425;-62
2022/08/12 08:29:44;;;;;;;1.52;0.73;;;;;;;26.89;38.62;99083.47;5032724;28;20037;-63
2022/08/12 08:32:29;;;;;;;1.27;0.60;;;;;;;27.35;37.70;99081.84;5032757;28;20033;-62
2022/08/12 08:35:13;;;;;;;2.03;0.70;;;;;;;27.29;37.52;99083.50;5045445;28;20033;-61
2022/08/12 08:38:10;;;;;;;0.80;0.50;;;;;;;27.25;37.47;99081.44;5058869;28;20497;-62
2022/08/12 08:43:59;;;;;;;4.03;0.70;;;;;;;27.40;36.71;99081.22;5048193;28;20392;-62
2022/08/12 08:46:43;;;;;;;2.63;0.52;;;;;;;27.47;36.58;99078.53;5041724;28;20544;-61
2022/08/12 08:49:28;;;;;;;1.77;0.70;;;;;;;27.40;36.60;99079.34;5032136;28;20044;-62
2022/08/12 08:52:13;;;;;;;1.35;0.50;;;;;;;28.09;36.30;99080.88;5036365;28;20037;-62
2022/08/12 08:54:59;;;;;;;1.90;0.70;;;;;;;28.49;35.20;99079.91;5039167;28;20488;-62
2022/08/12 08:57:49;;;;;;;2.17;0.65;;;;;;;29.14;34.55;99063.72;5030976;28;20480;-62
2022/08/12 09:00:38;;;;;;;6.05;0.85;;;;;;;28.70;34.94;99072.50;5031136;28;20044;-62
2022/08/12 09:03:22;;;;;;;2.38;0.85;;;;;;;29.51;33.85;99065.66;5032083;28;20068;-61
2022/08/12 09:06:07;;;;;;;1.30;0.73;;;;;;;30.06;33.21;99063.22;5039993;28;20071;-62
2022/08/12 09:08:52;;;;;;;2.22;0.55;;;;;;;29.60;32.88;99066.22;5048968;28;20107;-64
2022/08/12 09:14:42;;;;;;;1.27;0.60;;;;;;;30.42;31.27;99064.25;5031099;28;20052;-62
2022/08/12 09:17:29;;;;;;;1.70;0.50;;;;;;;31.07;30.11;99063.69;5031746;28;20544;-61
2022/08/12 09:20:16;;;;;;;1.23;0.50;;;;;;;30.68;30.18;99059.50;5034128;28;20469;-62
2022/08/12 09:23:04;;;;;;;1.45;0.50;;;;;;;30.62;31.33;99060.41;5036040;28;20037;-61
2022/08/12 09:25:48;;;;;;;1.00;0.50;;;;;;;30.43;30.77;99060.47;5041686;28;20045;-61
2022/08/12 09:28:34;;;;;;;1.58;0.50;;;;;;;30.16;30.96;99055.41;5036731;28;20148;-61
2022/08/12 09:31:20;;;;;;;1.38;0.73;;;;;;;30.33;30.94;99054.78;5031628;28;20037;-62
2022/08/12 09:34:07;;;;;;;0.75;0.50;;;;;;;31.12;29.92;99052.19;5031649;28;20034;-62
2022/08/12 09:36:53;;;;;;;1.33;0.50;;;;;;;31.18;29.86;99049.34;5030178;28;20045;-63
2022/08/12 09:39:39;;;;;;;1.30;0.65;;;;;;;31.08;30.30;99051.81;5031666;28;20044;-62
2022/08/12 09:45:30;;;;;;;1.10;0.47;;;;;;;31.95;29.51;99044.03;5031570;28;20041;-63
2022/08/12 09:48:18;;;;;;;1.65;0.43;;;;;;;31.95;28.40;99045.88;5044235;28;20049;-62
2022/08/12 09:51:07;;;;;;;2.20;0.70;;;;;;;31.64;28.66;99043.34;5035818;28;20044;-63
2022/08/12 09:53:52;;;;;;;2.67;0.50;;;;;;;31.10;29.05;99034.31;5031244;28;20373;-62
2022/08/12 09:56:40;;;;;;;0.82;0.55;;;;;;;31.29;29.55;99039.59;5044934;28;20542;-62
2022/08/12 09:59:27;;;;;;;1.77;0.50;;;;;;;31.56;28.08;99035.59;5034201;28;20034;-62
2022/08/12 10:02:13;;;;;;;0.85;0.47;;;;;;;31.08;29.38;99027.47;5042922;28;20056;-62
2022/08/12 10:04:58;;;;;;;0.85;0.50;;;;;;;31.92;28.27;99019.28;5031386;28;20076;-63
2022/08/12 10:07:42;;;;;;;2.10;0.60;;;;;;;31.94;28.94;99014.44;5031966;28;20077;-62
2022/08/12 10:10:28;;;;;;;0.70;0.57;;;;;;;32.94;27.69;99017.81;5037945;28;20048;-61
2022/08/12 10:16:33;;;;;;;2.83;0.63;;;;;;;33.85;25.35;99016.94;5031926;28;20043;-62
2022/08/12 10:19:19;;;;;;;1.92;0.60;;;;;;;34.00;25.72;99017.09;5067526;28;20033;-62
2022/08/12 10:22:05;;;;;;;3.53;0.60;;;;;;;33.48;26.46;99013.75;5045007;28;20044;-61
2022/08/12 10:30:56;;;;;;;1.67;0.40;;;;;;;33.42;26.26;99004.72;5030034;28;20065;-63
2022/08/12 10:33:40;;;;;;;4.40;0.70;;;;;;;34.71;23.68;99005.56;5031861;28;20041;-63
2022/08/12 10:36:26;;;;;;;2.10;0.40;;;;;;;34.08;20.98;98994.06;5047548;28;20037;-64
2022/08/12 10:39:15;;;;;;;0.88;0.30;;;;;;;34.26;20.19;98992.13;5034727;28;20045;-62
2022/08/12 10:45:08;;;;;;;0.70;0.30;;;;;;;33.43;22.79;98981.09;5034360;28;20280;-62
2022/08/12 10:47:53;;;;;;;0.93;0.50;;;;;;;34.55;20.84;98983.69;5033431;28;20083;-62
2022/08/12 10:50:39;;;;;;;0.77;0.30;;;;;;;34.55;19.68;98980.97;5041175;28;20034;-62
2022/08/12 10:53:25;;;;;;;0.85;0.40;;;;;;;34.83;20.71;98979.00;5035978;28;20057;-62
2022/08/12 10:56:13;;;;;;;0.55;0.32;;;;;;;35.22;21.17;98982.53;5045658;28;20376;-62
2022/08/12 10:58:58;;;;;;;0.73;0.30;;;;;;;36.24;20.31;98977.72;5034363;28;20041;-61
2022/08/12 11:01:42;;;;;;;0.98;0.30;;;;;;;36.55;19.16;98968.72;5066049;28;20063;-61
2022/08/12 11:04:29;;;;;;;2.22;0.22;;;;;;;35.82;21.18;98963.19;5035965;28;20033;-60
2022/08/12 11:07:14;;;;;;;0.40;0.25;;;;;;;35.65;21.43;98971.53;5033827;28;20045;-61
2022/08/12 11:09:59;;;;;;;0.52;0.20;;;;;;;35.96;18.97;98968.94;5034022;28;20057;-60
2022/08/12 11:12:46;;;;;;;0.32;0.20;;;;;;;35.58;19.39;98960.09;5018859;28;20064;-60
2022/08/12 11:15:31;;;;;;;0.90;0.22;;;;;;;36.04;18.77;98961.31;5047122;28;20037;-61
2022/08/12 11:18:15;;;;;;;0.45;0.25;;;;;;;36.43;18.61;98952.63;5033796;28;20041;-60
2022/08/12 11:21:00;;;;;;;1.10;0.40;;;;;;;33.41;20.88;98954.22;5033605;28;20033;-61
2022/08/12 11:23:45;;;;;;;1.55;0.40;;;;;;;34.01;20.01;98950.84;5033467;28;20064;-61
2022/08/12 11:26:29;;;;;;;0.43;0.30;;;;;;;33.99;20.12;98955.72;5060927;28;20038;-61
2022/08/12 11:29:18;;;;;;;0.77;0.30;;;;;;;35.79;19.85;98946.56;5033766;28;20056;-60
2022/08/12 11:32:03;;;;;;;1.45;0.30;;;;;;;35.10;19.39;98947.34;5033499;28;20068;-61
2022/08/12 11:34:47;;;;;;;0.35;0.20;;;;;;;35.18;20.40;98951.44;5060423;28;20052;-61
2022/08/12 11:37:34;;;;;;;0.75;0.30;;;;;;;35.94;19.47;98948.50;5033444;28;20045;-61
2022/08/12 11:40:18;;;;;;;0.75;0.20;;;;;;;36.76;18.81;98944.19;5046641;28;20098;-62
2022/08/12 11:43:03;;;;;;;0.30;0.20;;;;;;;36.55;19.18;98948.81;5043902;28;20060;-62
2022/08/12 11:45:48;;;;;;;1.23;0.63;;;;;;;37.62;18.43;98939.81;5032519;28;20044;-60
2022/08/12 11:48:38;;;;;;;0.35;0.20;;;;;;;36.94;17.91;98939.22;5038679;28;20504;-60
2022/08/12 11:51:23;;;;;;;0.30;0.20;;;;;;;36.32;17.47;98940.09;5035985;28;20057;-60
2022/08/12 11:54:07;;;;;;;0.52;0.30;;;;;;;36.81;18.97;98937.88;5039192;28;20045;-60
2022/08/12 11:56:52;;;;;;;0.20;0.10;;;;;;;37.71;18.00;98926.34;5038117;28;20075;-62
2022/08/12 11:59:37;;;;;;;0.30;0.20;;;;;;;36.51;17.69;98934.09;5044031;28;20477;-61
2022/08/12 12:02:22;;;;;;;0.50;0.35;;;;;;;36.75;18.68;98918.00;5042798;28;20038;-62
2022/08/12 12:05:07;;;;;;;0.50;0.20;;;;;;;36.29;18.54;98924.28;5043966;28;20437;-62
2022/08/12 12:07:51;;;;;;;0.60;0.20;;;;;;;35.87;19.17;98926.97;5043552;28;20118;-62
2022/08/12 12:10:36;;;;;;;1.10;0.35;;;;;;;37.02;17.84;98922.28;5038465;28;20048;-62
2022/08/12 12:13:20;;;;;;;0.43;0.20;;;;;;;35.02;18.30;98918.75;5033293;28;20042;-62
2022/08/12 12:16:05;;;;;;;0.93;0.32;;;;;;;34.57;20.09;98913.53;5032729;28;20096;-62
2022/08/12 12:18:50;;;;;;;1.05;0.20;;;;;;;35.97;18.79;98918.78;5033018;28;20068;-62
2022/08/12 12:21:35;;;;;;;0.40;0.10;;;;;;;35.65;19.14;98914.34;5043397;28;20056;-61
2022/08/12 12:24:20;;;;;;;0.68;0.35;;;;;;;35.28;20.03;98908.00;5031858;28;20052;-61
2022/08/12 12:27:07;;;;;;;0.95;0.32;;;;;;;37.19;17.52;98908.31;5032390;28;20037;-61
2022/08/12 12:29:55;;;;;;;0.50;0.30;;;;;;;37.02;17.19;98911.38;5032728;28;20051;-61
2022/08/12 12:32:40;;;;;;;0.70;0.10;;;;;;;35.74;17.70;98901.88;5031700;28;20041;-61
2022/08/12 12:35:24;;;;;;;0.93;0.10;;;;;;;36.79;18.20;98897.25;5032351;28;20072;-61
2022/08/12 12:38:11;;;;;;;0.70;0.30;;;;;;;35.31;18.53;98893.84;5034951;28;20397;-61
2022/08/12 12:40:56;;;;;;;1.45;0.40;;;;;;;34.53;19.29;98893.41;5032403;28;20101;-61
2022/08/12 12:43:40;;;;;;;0.20;0.10;;;;;;;34.97;20.35;98896.94;5031320;28;20033;-61
2022/08/12 12:46:25;;;;;;;0.40;0.17;;;;;;;33.48;21.33;98893.50;5032031;28;20045;-62
2022/08/12 12:49:09;;;;;;;1.95;0.98;;;;;;;34.54;20.15;98892.31;5031999;28;20108;-62
2022/08/12 12:51:55;;;;;;;0.80;0.28;;;;;;;35.91;19.10;98889.91;5059250;28;20065;-63
2022/08/12 12:54:51;;;;;;;1.05;0.50;;;;;;;36.18;19.75;98894.31;5031977;28;20091;-61
2022/08/12 12:57:42;;;;;;;1.98;0.40;;;;;;;36.03;17.57;98884.22;5044337;28;20068;-61
2022/08/12 13:00:26;;;;;;;1.83;0.30;;;;;;;35.26;18.33;98881.06;5040149;28;20044;-61
2022/08/12 13:03:17;;;;;;;2.58;0.60;;;;;;;35.60;18.19;98889.84;5031944;28;20045;-60
2022/08/12 13:06:02;;;;;;;1.92;0.30;;;;;;;35.51;18.58;98882.22;5031886;28;20253;-60
2022/08/12 13:08:47;;;;;;;0.28;0.10;;;;;;;35.96;16.77;98881.75;5060718;28;20041;-60
2022/08/12 13:11:32;;;;;;;1.23;0.30;;;;;;;35.86;17.71;98879.84;5031982;28;20038;-61
2022/08/12 13:14:18;;;;;;;0.30;0.20;;;;;;;35.44;17.04;98873.47;5031996;28;20038;-61
2022/08/12 13:17:03;;;;;;;0.38;0.20;;;;;;;34.64;18.07;98867.09;5031578;28;20072;-61
2022/08/12 13:19:48;;;;;;;0.57;0.25;;;;;;;35.32;18.93;98865.53;5031693;28;20045;-61
2022/08/12 13:22:32;;;;;;;1.02;0.20;;;;;;;35.82;17.43;98861.59;5036385;28;20052;-60
2022/08/12 13:25:18;;;;;;;1.30;0.20;;;;;;;34.00;18.74;98864.16;5036947;28;20559;-61
2022/08/12 13:28:03;;;;;;;0.50;0.30;;;;;;;33.98;19.12;98866.34;5030188;28;20049;-60
2022/08/12 13:30:49;;;;;;;3.13;0.30;;;;;;;33.79;18.94;98861.25;5031575;28;20041;-61
2022/08/12 13:33:34;;;;;;;0.63;0.30;;;;;;;34.19;18.74;98867.34;5031277;28;20094;-61
2022/08/12 13:36:19;;;;;;;0.88;0.20;;;;;;;34.11;18.82;98860.44;5031627;28;20038;-61
2022/08/12 13:39:05;;;;;;;0.90;0.40;;;;;;;34.06;18.88;98865.03;5031574;28;20044;-61
2022/08/12 13:41:50;;;;;;;1.20;0.40;;;;;;;33.92;19.03;98860.03;5030034;28;20044;-61
2022/08/12 13:44:35;;;;;;;0.82;0.40;;;;;;;34.07;19.42;98861.22;5030229;28;20052;-60
2022/08/12 13:47:20;;;;;;;0.55;0.30;;;;;;;34.65;19.19;98863.31;5036379;28;20049;-60
2022/08/12 13:50:05;;;;;;;0.98;0.50;;;;;;;34.47;18.15;98862.63;5031156;28;20095;-60
2022/08/12 13:52:50;;;;;;;0.65;0.47;;;;;;;34.38;18.54;98854.16;5039906;28;20044;-60
2022/08/12 13:55:44;;;;;;;0.98;0.40;;;;;;;34.37;18.77;98851.72;5031359;28;20065;-61
2022/08/12 13:58:29;;;;;;;1.50;0.60;;;;;;;35.49;18.01;98856.34;5031351;28;20047;-60
2022/08/12 14:01:16;;;;;;;0.85;0.47;;;;;;;33.78;19.50;98859.63;5031634;28;20101;-61
2022/08/12 14:04:03;;;;;;;1.23;0.40;;;;;;;33.80;19.74;98861.00;5031092;28;20445;-61
2022/08/12 14:06:49;;;;;;;0.93;0.38;;;;;;;33.64;20.56;98854.59;5031198;28;20356;-61
2022/08/12 14:10:34;;;;;;;0.63;0.20;;;;;;;33.72;19.89;98855.25;5051670;28;20040;-60
2022/08/12 14:12:38;;;;;;;0.50;0.30;;;;;;;32.09;21.17;98854.13;5038038;28;20033;-61
2022/08/12 14:15:23;;;;;;;0.50;0.32;;;;;;;33.53;20.41;98847.41;5035793;28;20049;-62
2022/08/12 14:18:13;;;;;;;0.52;0.30;;;;;;;33.24;20.15;98859.31;5034190;28;20045;-62
2022/08/12 14:21:00;;;;;;;1.10;0.40;;;;;;;33.43;19.37;98851.66;5033944;28;20061;-62
2022/08/12 14:23:49;;;;;;;0.50;0.25;;;;;;;32.94;20.33;98847.81;5033709;28;20048;-62
2022/08/12 14:26:36;;;;;;;0.88;0.40;;;;;;;34.51;19.56;98847.44;5033863;28;20080;-61
2022/08/12 14:29:28;;;;;;;1.55;0.40;;;;;;;35.22;18.40;98844.56;5042013;28;20056;-62
2022/08/12 14:32:12;;;;;;;0.70;0.38;;;;;;;34.50;19.02;98840.38;5041598;28;20053;-62
2022/08/12 14:34:57;;;;;;;0.40;0.20;;;;;;;34.31;18.99;98831.81;5021576;28;20052;-62
2022/08/12 14:37:42;;;;;;;0.52;0.38;;;;;;;34.78;19.19;98824.78;5037418;28;20045;-62
2022/08/12 14:40:28;;;;;;;2.10;0.30;;;;;;;33.31;19.59;98832.81;5019690;28;20037;-62
2022/08/12 14:43:13;;;;;;;1.52;0.63;;;;;;;33.88;19.24;98827.13;5048391;28;20172;-61
2022/08/12 14:46:01;;;;;;;7.05;1.15;;;;;;;33.01;19.60;98819.69;5042216;28;20107;-62
2022/08/12 14:48:49;;;;;;;0.38;0.30;;;;;;;32.43;20.53;98816.19;5061388;28;20033;-62
2022/08/12 14:51:34;;;;;;;2.20;0.90;;;;;;;32.34;19.94;98817.69;5033633;28;20038;-62
2022/08/12 14:54:19;;;;;;;5.18;1.25;;;;;;;31.35;21.51;98827.63;5047718;28;20040;-64
2022/08/12 14:57:05;;;;;;;2.90;0.80;;;;;;;32.59;20.58;98819.16;5061177;28;20421;-62
2022/08/12 15:02:54;;;;;;;0.70;0.30;;;;;;;33.39;19.65;98801.69;5033739;28;20065;-63